Time;durP1;ratioP1;P1;durP2;ratioP2;P2;SDS_P1;SDS_P2;PMS_P1;PMS_P2;Temp;Humidity;BMP_temperature;BMP_pressure;BME280_temperature;BME280_humidity;BME280_pressure;Samples;Min_cycle;Max_cycle;Signal;HPM_P1;HPM_P2
2021/04/30 00:01:46;;;;;;;0.00;0.00;;;;;;;;;;5074888;28;20960;-58
2021/04/30 00:04:12;;;;;;;0.70;0.70;;;;;;;;;;5074143;28;20484;-58
2021/04/30 00:06:39;;;;;;;0.30;0.30;;;;;;;;;;5074502;28;20182;-58
2021/04/30 00:09:06;;;;;;;0.43;0.43;;;;;;;;;;5075106;28;20209;-57
2021/04/30 00:11:32;;;;;;;0.30;0.20;;;;;;;;;;5075456;28;20645;-58
2021/04/30 00:13:59;;;;;;;0.07;0.07;;;;;;;;;;5075034;28;20209;-58
2021/04/30 00:16:25;;;;;;;0.00;0.00;;;;;;;;;;5073811;28;20660;-58
2021/04/30 00:18:52;;;;;;;0.23;0.23;;;;;;;;;;5075864;28;20620;-58
2021/04/30 00:21:20;;;;;;;0.00;0.00;;;;;;;;;;5075699;28;20259;-58
2021/04/30 00:23:48;;;;;;;0.10;0.10;;;;;;;;;;5074870;28;20462;-58
2021/04/30 00:26:14;;;;;;;0.77;0.40;;;;;;;;;;5073944;28;20514;-58
2021/04/30 00:28:41;;;;;;;0.00;0.00;;;;;;;;;;5073111;28;20193;-58
2021/04/30 00:31:08;;;;;;;0.00;0.00;;;;;;;;;;5074139;28;20188;-58
2021/04/30 00:33:36;;;;;;;0.57;0.57;;;;;;;;;;5075337;28;20601;-58
2021/04/30 00:36:03;;;;;;;7.20;0.40;;;;;;;;;;5076240;28;20184;-58
2021/04/30 00:38:29;;;;;;;0.00;0.00;;;;;;;;;;5076395;28;20804;-58
2021/04/30 00:40:56;;;;;;;0.00;0.00;;;;;;;;;;5076230;28;20237;-58
2021/04/30 00:43:22;;;;;;;0.30;0.30;;;;;;;;;;5076313;28;20683;-59
2021/04/30 00:45:52;;;;;;;1.57;1.03;;;;;;;;;;5071971;28;20182;-58
2021/04/30 00:48:19;;;;;;;1.70;0.87;;;;;;;;;;5076154;28;20719;-58
2021/04/30 00:50:46;;;;;;;1.60;0.20;;;;;;;;;;5076016;28;20206;-58
2021/04/30 00:53:14;;;;;;;0.10;0.10;;;;;;;;;;5073725;28;20205;-58
2021/04/30 00:55:40;;;;;;;0.30;0.30;;;;;;;;;;5075298;28;20504;-58
2021/04/30 00:58:07;;;;;;;2.10;0.43;;;;;;;;;;5072031;28;20186;-58
2021/04/30 01:00:36;;;;;;;1.70;0.67;;;;;;;;;;5073815;28;20234;-58
2021/04/30 01:03:06;;;;;;;0.00;0.00;;;;;;;;;;5076314;28;20213;-58
2021/04/30 01:05:32;;;;;;;0.10;0.10;;;;;;;;;;5073397;28;20174;-58
2021/04/30 01:07:59;;;;;;;0.10;0.10;;;;;;;;;;5076510;28;20560;-59
2021/04/30 01:10:25;;;;;;;0.10;0.10;;;;;;;;;;5067521;28;20595;-58
2021/04/30 01:12:52;;;;;;;0.00;0.00;;;;;;;;;;5072721;28;20238;-57
2021/04/30 01:15:19;;;;;;;2.63;0.30;;;;;;;;;;5075325;28;20186;-58
2021/04/30 01:17:45;;;;;;;0.60;0.60;;;;;;;;;;5075052;28;20247;-57
2021/04/30 01:20:13;;;;;;;0.00;0.00;;;;;;;;;;5074106;28;20266;-58
2021/04/30 01:22:42;;;;;;;0.00;0.00;;;;;;;;;;5071534;28;20193;-58
2021/04/30 01:25:11;;;;;;;2.93;1.30;;;;;;;;;;5075585;28;20209;-58
2021/04/30 01:27:38;;;;;;;0.07;0.07;;;;;;;;;;5076168;28;20198;-57
2021/04/30 01:30:11;;;;;;;0.23;0.23;;;;;;;;;;5076267;28;20621;-58
2021/04/30 01:32:37;;;;;;;0.00;0.00;;;;;;;;;;5076283;28;20614;-57
2021/04/30 01:35:05;;;;;;;0.00;0.00;;;;;;;;;;5075753;28;20507;-58
2021/04/30 01:37:32;;;;;;;0.00;0.00;;;;;;;;;;5076376;28;20251;-58
2021/04/30 01:39:58;;;;;;;0.00;0.00;;;;;;;;;;5075083;28;20707;-58
2021/04/30 01:42:25;;;;;;;0.20;0.20;;;;;;;;;;5075905;28;20179;-58
2021/04/30 01:44:52;;;;;;;0.03;0.03;;;;;;;;;;5077836;28;20226;-57
2021/04/30 01:47:18;;;;;;;0.13;0.13;;;;;;;;;;5076075;28;20710;-59
2021/04/30 01:49:45;;;;;;;0.00;0.00;;;;;;;;;;5073379;28;20299;-58
2021/04/30 01:52:12;;;;;;;0.00;0.00;;;;;;;;;;5072651;28;20247;-58
2021/04/30 01:54:39;;;;;;;0.00;0.00;;;;;;;;;;5068735;28;20187;-58
2021/04/30 01:57:06;;;;;;;0.00;0.00;;;;;;;;;;5076080;28;20312;-58
2021/04/30 01:59:32;;;;;;;3.80;1.60;;;;;;;;;;5075886;28;20560;-58
2021/04/30 02:01:59;;;;;;;0.17;0.17;;;;;;;;;;5076307;28;20658;-58
2021/04/30 02:04:26;;;;;;;0.00;0.00;;;;;;;;;;5076230;28;20660;-58
2021/04/30 02:06:52;;;;;;;3.30;1.03;;;;;;;;;;5077329;28;20265;-58
2021/04/30 02:09:18;;;;;;;2.20;0.70;;;;;;;;;;5089339;28;20279;-58
2021/04/30 02:11:45;;;;;;;3.67;3.47;;;;;;;;;;5080055;28;20428;-58
2021/04/30 02:14:12;;;;;;;0.00;0.00;;;;;;;;;;5079970;28;20195;-58
2021/04/30 02:16:38;;;;;;;0.30;0.30;;;;;;;;;;5074511;28;20198;-58
2021/04/30 02:19:05;;;;;;;0.10;0.10;;;;;;;;;;5078202;28;20305;-57
2021/04/30 02:21:32;;;;;;;0.20;0.20;;;;;;;;;;5078946;28;20186;-58
2021/04/30 02:24:00;;;;;;;0.00;0.00;;;;;;;;;;5082446;28;20184;-58
2021/04/30 02:26:28;;;;;;;0.33;0.33;;;;;;;;;;5078333;28;20910;-58
2021/04/30 02:28:56;;;;;;;1.40;0.50;;;;;;;;;;5078751;28;20190;-58
2021/04/30 02:31:22;;;;;;;0.00;0.00;;;;;;;;;;5078958;28;20187;-58
2021/04/30 02:33:49;;;;;;;0.00;0.00;;;;;;;;;;5075657;28;20190;-58
2021/04/30 02:36:15;;;;;;;0.10;0.10;;;;;;;;;;5077953;28;20281;-59
2021/04/30 02:38:42;;;;;;;0.10;0.10;;;;;;;;;;5079164;28;20194;-59
2021/04/30 02:41:08;;;;;;;3.40;1.63;;;;;;;;;;5078663;28;20252;-58
2021/04/30 02:43:35;;;;;;;0.00;0.00;;;;;;;;;;5079277;28;20691;-58
2021/04/30 02:46:02;;;;;;;0.10;0.10;;;;;;;;;;5079329;28;20189;-57
2021/04/30 02:50:56;;;;;;;0.00;0.00;;;;;;;;;;5078036;28;20302;-58
2021/04/30 02:53:23;;;;;;;0.10;0.10;;;;;;;;;;5079279;28;20736;-58
2021/04/30 02:55:49;;;;;;;1.23;0.67;;;;;;;;;;5077496;28;20234;-58
2021/04/30 02:58:16;;;;;;;9.13;0.87;;;;;;;;;;5082377;28;20209;-58
2021/04/30 03:00:42;;;;;;;0.37;0.37;;;;;;;;;;5075690;28;20587;-58
2021/04/30 03:03:09;;;;;;;0.00;0.00;;;;;;;;;;5077366;28;20553;-58
2021/04/30 03:05:35;;;;;;;0.10;0.10;;;;;;;;;;5070393;28;20554;-59
2021/04/30 03:08:02;;;;;;;1.30;0.17;;;;;;;;;;5073278;28;20249;-58
2021/04/30 03:10:28;;;;;;;0.10;0.10;;;;;;;;;;5077462;28;20182;-58
2021/04/30 03:12:55;;;;;;;1.13;0.53;;;;;;;;;;5077577;28;20189;-57
2021/04/30 03:15:22;;;;;;;0.83;0.83;;;;;;;;;;5077965;28;20562;-59
2021/04/30 03:17:49;;;;;;;0.10;0.10;;;;;;;;;;5074362;28;20189;-59
2021/04/30 03:20:16;;;;;;;2.00;1.97;;;;;;;;;;5072610;28;20217;-57
2021/04/30 03:22:43;;;;;;;0.57;0.57;;;;;;;;;;5078942;28;20183;-58
2021/04/30 03:25:10;;;;;;;0.60;0.60;;;;;;;;;;5066003;28;20193;-58
2021/04/30 03:27:37;;;;;;;0.00;0.00;;;;;;;;;;5077944;28;20281;-57
2021/04/30 03:30:04;;;;;;;0.07;0.07;;;;;;;;;;5078105;28;20186;-58
2021/04/30 03:32:30;;;;;;;1.40;0.53;;;;;;;;;;5078313;28;20207;-58
2021/04/30 03:34:57;;;;;;;0.00;0.00;;;;;;;;;;5078022;28;20193;-58
2021/04/30 03:37:24;;;;;;;0.13;0.13;;;;;;;;;;5077853;28;20200;-59
2021/04/30 03:39:51;;;;;;;0.00;0.00;;;;;;;;;;5077211;28;20237;-58
2021/04/30 03:42:17;;;;;;;0.10;0.10;;;;;;;;;;5076311;28;20237;-58
2021/04/30 03:44:44;;;;;;;0.87;0.53;;;;;;;;;;5077172;28;20231;-58
2021/04/30 03:47:11;;;;;;;0.00;0.00;;;;;;;;;;5078425;28;20189;-58
2021/04/30 03:49:38;;;;;;;0.00;0.00;;;;;;;;;;5078442;28;20197;-58
2021/04/30 03:52:05;;;;;;;0.67;0.40;;;;;;;;;;5078497;28;20653;-58
2021/04/30 03:54:31;;;;;;;0.00;0.00;;;;;;;;;;5078392;28;20920;-57
2021/04/30 03:56:58;;;;;;;0.40;0.40;;;;;;;;;;5078614;28;20636;-58
2021/04/30 03:59:25;;;;;;;0.00;0.00;;;;;;;;;;5077958;28;20686;-58
2021/04/30 04:01:53;;;;;;;0.10;0.10;;;;;;;;;;5071163;28;20729;-57
2021/04/30 04:04:19;;;;;;;0.50;0.50;;;;;;;;;;5073495;28;20220;-57
2021/04/30 04:06:46;;;;;;;0.10;0.10;;;;;;;;;;5076458;28;20246;-58
2021/04/30 04:09:12;;;;;;;0.40;0.40;;;;;;;;;;5076814;28;20673;-58
2021/04/30 04:11:39;;;;;;;3.50;0.73;;;;;;;;;;5078082;28;20413;-57
2021/04/30 04:14:05;;;;;;;0.10;0.10;;;;;;;;;;5073707;28;20193;-58
2021/04/30 04:16:32;;;;;;;0.00;0.00;;;;;;;;;;5077387;28;20643;-58
2021/04/30 04:18:58;;;;;;;0.00;0.00;;;;;;;;;;5077579;28;20181;-58
2021/04/30 04:21:25;;;;;;;6.03;0.67;;;;;;;;;;5077573;28;20273;-58
2021/04/30 04:23:51;;;;;;;3.30;3.10;;;;;;;;;;5076081;28;20635;-58
2021/04/30 04:26:18;;;;;;;1.10;0.57;;;;;;;;;;5077190;28;20591;-58
2021/04/30 04:28:44;;;;;;;0.00;0.00;;;;;;;;;;5077111;28;20627;-58
2021/04/30 04:31:11;;;;;;;0.10;0.10;;;;;;;;;;5077731;28;20487;-57
2021/04/30 04:33:37;;;;;;;0.87;0.83;;;;;;;;;;5075011;28;20242;-58
2021/04/30 04:36:04;;;;;;;0.00;0.00;;;;;;;;;;5068422;28;20664;-58
2021/04/30 04:38:30;;;;;;;0.00;0.00;;;;;;;;;;5075966;28;20694;-57
2021/04/30 04:40:57;;;;;;;0.00;0.00;;;;;;;;;;5075929;28;20601;-58
2021/04/30 04:43:23;;;;;;;0.20;0.20;;;;;;;;;;5074754;28;20192;-58
2021/04/30 04:45:51;;;;;;;0.17;0.17;;;;;;;;;;5070308;28;20239;-58
2021/04/30 04:48:17;;;;;;;0.63;0.63;;;;;;;;;;5075336;28;20190;-57
2021/04/30 04:50:44;;;;;;;0.00;0.00;;;;;;;;;;5075655;28;20258;-58
2021/04/30 04:53:10;;;;;;;0.00;0.00;;;;;;;;;;5074356;28;20638;-57
2021/04/30 04:55:37;;;;;;;0.10;0.10;;;;;;;;;;5076115;28;20814;-58
2021/04/30 04:58:03;;;;;;;0.00;0.00;;;;;;;;;;5074327;28;20192;-58
2021/04/30 05:00:32;;;;;;;0.03;0.03;;;;;;;;;;5076428;28;20233;-58
2021/04/30 05:02:58;;;;;;;0.00;0.00;;;;;;;;;;5070433;28;20272;-57
2021/04/30 05:05:26;;;;;;;0.00;0.00;;;;;;;;;;5076298;28;20189;-58
2021/04/30 05:07:52;;;;;;;0.00;0.00;;;;;;;;;;5066644;28;20186;-58
2021/04/30 05:10:19;;;;;;;0.00;0.00;;;;;;;;;;5069097;28;20197;-58
2021/04/30 05:12:46;;;;;;;0.00;0.00;;;;;;;;;;5074782;28;20679;-57
2021/04/30 05:15:14;;;;;;;0.00;0.00;;;;;;;;;;5076708;28;20197;-58
2021/04/30 05:17:42;;;;;;;0.57;0.40;;;;;;;;;;5073012;28;20703;-57
2021/04/30 05:20:09;;;;;;;1.27;0.63;;;;;;;;;;5075983;28;20209;-58
2021/04/30 05:22:38;;;;;;;0.00;0.00;;;;;;;;;;5075993;28;20447;-58
2021/04/30 05:25:05;;;;;;;8.47;0.87;;;;;;;;;;5075763;28;20185;-58
2021/04/30 05:27:32;;;;;;;0.10;0.10;;;;;;;;;;5074626;28;20301;-58
2021/04/30 05:29:58;;;;;;;0.40;0.40;;;;;;;;;;5076483;28;20632;-57
2021/04/30 05:32:25;;;;;;;9.00;0.30;;;;;;;;;;5076591;28;20431;-57
2021/04/30 05:34:51;;;;;;;0.73;0.30;;;;;;;;;;5076494;28;20650;-57
2021/04/30 05:37:18;;;;;;;0.00;0.00;;;;;;;;;;5075906;28;20219;-58
2021/04/30 05:39:44;;;;;;;0.00;0.00;;;;;;;;;;5063571;28;20666;-57
2021/04/30 05:42:11;;;;;;;0.10;0.10;;;;;;;;;;5076598;28;20446;-58
2021/04/30 05:44:37;;;;;;;0.00;0.00;;;;;;;;;;5080025;28;20193;-58
2021/04/30 05:47:03;;;;;;;1.43;0.53;;;;;;;;;;5080121;28;20197;-58
2021/04/30 05:49:30;;;;;;;5.20;1.37;;;;;;;;;;5080545;28;20189;-58
2021/04/30 05:51:56;;;;;;;0.10;0.10;;;;;;;;;;5079310;28;20403;-57
2021/04/30 05:54:23;;;;;;;0.10;0.10;;;;;;;;;;5080101;28;20197;-58
2021/04/30 05:56:50;;;;;;;0.00;0.00;;;;;;;;;;5073306;28;20598;-58
2021/04/30 05:59:16;;;;;;;2.77;1.03;;;;;;;;;;5078956;28;20225;-57
2021/04/30 06:01:43;;;;;;;6.80;0.87;;;;;;;;;;5079993;28;20216;-57
2021/04/30 06:04:09;;;;;;;0.00;0.00;;;;;;;;;;5078856;28;20235;-58
2021/04/30 06:06:36;;;;;;;0.00;0.00;;;;;;;;;;5078154;28;20193;-58
2021/04/30 06:09:02;;;;;;;0.63;0.37;;;;;;;;;;5078834;28;20490;-58
2021/04/30 06:11:29;;;;;;;0.00;0.00;;;;;;;;;;5079597;28;20200;-57
2021/04/30 06:13:55;;;;;;;0.00;0.00;;;;;;;;;;5079703;28;20201;-58
2021/04/30 06:16:22;;;;;;;0.07;0.07;;;;;;;;;;5079208;28;20709;-58
2021/04/30 06:18:48;;;;;;;0.00;0.00;;;;;;;;;;5079324;28;20192;-57
2021/04/30 06:21:14;;;;;;;0.60;0.60;;;;;;;;;;5079591;28;20222;-58
2021/04/30 06:23:41;;;;;;;0.33;0.27;;;;;;;;;;5077420;28;20194;-58
2021/04/30 06:26:07;;;;;;;0.00;0.00;;;;;;;;;;5079515;28;20415;-57
2021/04/30 06:28:34;;;;;;;1.70;1.60;;;;;;;;;;5079111;28;20666;-57
2021/04/30 06:31:00;;;;;;;8.13;0.83;;;;;;;;;;5075012;28;20713;-58
2021/04/30 06:33:27;;;;;;;0.10;0.10;;;;;;;;;;5081695;28;20348;-59
2021/04/30 06:35:53;;;;;;;1.60;1.50;;;;;;;;;;5081721;28;20193;-58
2021/04/30 06:38:20;;;;;;;0.00;0.00;;;;;;;;;;5079255;28;20193;-58
2021/04/30 06:40:46;;;;;;;0.83;0.50;;;;;;;;;;5079088;28;20220;-58
2021/04/30 06:43:13;;;;;;;0.40;0.40;;;;;;;;;;5078653;28;20181;-58
2021/04/30 06:45:39;;;;;;;0.13;0.13;;;;;;;;;;5078100;28;20202;-58
2021/04/30 06:48:06;;;;;;;0.10;0.10;;;;;;;;;;5079741;28;20744;-58
2021/04/30 06:50:32;;;;;;;0.30;0.30;;;;;;;;;;5074717;28;20520;-58
2021/04/30 06:52:59;;;;;;;0.00;0.00;;;;;;;;;;5078149;28;20653;-58
2021/04/30 06:55:25;;;;;;;0.00;0.00;;;;;;;;;;5094625;28;20770;-58
2021/04/30 06:57:52;;;;;;;0.07;0.07;;;;;;;;;;5078914;28;20197;-57
2021/04/30 07:00:18;;;;;;;0.37;0.37;;;;;;;;;;5078310;28;20318;-58
2021/04/30 07:02:45;;;;;;;0.63;0.63;;;;;;;;;;5074364;28;20186;-57
2021/04/30 07:05:13;;;;;;;0.13;0.10;;;;;;;;;;5077656;28;20246;-58
2021/04/30 07:07:40;;;;;;;0.00;0.00;;;;;;;;;;5078963;28;20280;-57
2021/04/30 07:10:08;;;;;;;0.00;0.00;;;;;;;;;;5078740;28;20221;-57
2021/04/30 07:12:34;;;;;;;0.10;0.10;;;;;;;;;;5077737;28;20193;-57
2021/04/30 07:15:01;;;;;;;3.20;0.70;;;;;;;;;;5077662;28;20204;-58
2021/04/30 07:17:28;;;;;;;0.30;0.10;;;;;;;;;;5077737;28;20193;-58
2021/04/30 07:19:54;;;;;;;0.00;0.00;;;;;;;;;;5078984;28;20213;-58
2021/04/30 07:22:21;;;;;;;0.83;0.63;;;;;;;;;;5078040;28;20189;-57
2021/04/30 07:24:47;;;;;;;0.10;0.10;;;;;;;;;;5076449;28;20556;-57
2021/04/30 07:27:17;;;;;;;0.20;0.20;;;;;;;;;;5093285;28;20643;-58
2021/04/30 07:29:43;;;;;;;8.20;0.97;;;;;;;;;;5078449;28;20623;-58
2021/04/30 07:32:10;;;;;;;0.10;0.10;;;;;;;;;;5075353;28;20733;-58
2021/04/30 07:34:37;;;;;;;0.10;0.10;;;;;;;;;;5077286;28;20184;-58
2021/04/30 07:37:04;;;;;;;0.33;0.33;;;;;;;;;;5078056;28;20219;-57
2021/04/30 07:39:31;;;;;;;0.00;0.00;;;;;;;;;;5077692;28;20205;-58
2021/04/30 07:41:57;;;;;;;0.00;0.00;;;;;;;;;;5077322;28;20662;-58
2021/04/30 07:44:24;;;;;;;0.13;0.13;;;;;;;;;;5071159;28;20285;-58
2021/04/30 07:46:51;;;;;;;1.47;0.53;;;;;;;;;;5077444;28;20274;-58
2021/04/30 07:49:18;;;;;;;0.00;0.00;;;;;;;;;;5077227;28;20196;-58
2021/04/30 07:51:44;;;;;;;0.27;0.27;;;;;;;;;;5077436;28;20198;-58
2021/04/30 07:54:11;;;;;;;2.43;0.13;;;;;;;;;;5077217;28;20380;-57
2021/04/30 07:56:38;;;;;;;0.00;0.00;;;;;;;;;;5077520;28;20181;-58
2021/04/30 07:59:04;;;;;;;0.00;0.00;;;;;;;;;;5077706;28;20223;-58
2021/04/30 08:01:31;;;;;;;0.00;0.00;;;;;;;;;;5076215;28;20331;-57
2021/04/30 08:03:57;;;;;;;0.97;0.93;;;;;;;;;;5077135;28;20234;-59
2021/04/30 08:06:24;;;;;;;1.10;0.20;;;;;;;;;;5077035;28;20236;-57
2021/04/30 08:08:50;;;;;;;1.40;0.60;;;;;;;;;;5077150;28;20348;-58
2021/04/30 08:11:17;;;;;;;0.73;0.73;;;;;;;;;;5076215;28;20582;-58
2021/04/30 08:13:43;;;;;;;0.03;0.03;;;;;;;;;;5076304;28;20198;-57
2021/04/30 08:16:10;;;;;;;0.20;0.20;;;;;;;;;;5075550;28;20308;-58
2021/04/30 08:18:36;;;;;;;1.20;0.43;;;;;;;;;;5076892;28;20196;-58
2021/04/30 08:21:03;;;;;;;0.00;0.00;;;;;;;;;;5076933;28;20304;-57
2021/04/30 08:23:29;;;;;;;47.63;1.40;;;;;;;;;;5076693;28;20716;-57
2021/04/30 08:25:56;;;;;;;0.00;0.00;;;;;;;;;;5067340;28;20197;-57
2021/04/30 12:59:36;;;;;;;1.60;0.30;;;;;;;;;;5052722;28;20619;-62
2021/04/30 13:02:10;;;;;;;0.00;0.00;;;;;;;;;;5030087;28;20183;-62
2021/04/30 13:04:49;;;;;;;0.77;0.77;;;;;;;;;;5032303;28;20190;-62
2021/04/30 13:07:16;;;;;;;0.90;0.47;;;;;;;;;;5033063;28;20195;-62
2021/04/30 13:09:42;;;;;;;1.60;0.43;;;;;;;;;;5032929;28;20968;-62
2021/04/30 13:12:11;;;;;;;0.50;0.50;;;;;;;;;;5034388;28;20752;-63
2021/04/30 13:14:41;;;;;;;0.30;0.30;;;;;;;;;;5032947;28;20222;-63
2021/04/30 13:17:17;;;;;;;1.20;1.10;;;;;;;;;;5032238;28;20183;-61
2021/04/30 13:19:44;;;;;;;0.10;0.10;;;;;;;;;;5031407;28;20197;-61
2021/04/30 13:22:14;;;;;;;0.03;0.03;;;;;;;;;;5032328;28;20641;-62
2021/04/30 13:24:41;;;;;;;0.17;0.17;;;;;;;;;;5029808;28;20593;-62
2021/04/30 13:27:17;;;;;;;0.30;0.10;;;;;;;;;;5032921;28;20178;-62
2021/04/30 13:29:51;;;;;;;5.00;0.70;;;;;;;;;;5031172;28;20697;-61
2021/04/30 13:32:18;;;;;;;0.30;0.30;;;;;;;;;;5032296;28;20774;-62
2021/04/30 13:34:46;;;;;;;0.13;0.13;;;;;;;;;;5031799;28;20267;-63
2021/04/30 13:37:16;;;;;;;0.87;0.40;;;;;;;;;;5032295;28;20587;-62
2021/04/30 13:39:44;;;;;;;2.10;0.83;;;;;;;;;;5032766;28;20205;-61
2021/04/30 13:42:24;;;;;;;1.70;1.23;;;;;;;;;;5032412;28;20179;-62
2021/04/30 13:44:57;;;;;;;0.30;0.30;;;;;;;;;;5032374;28;20179;-62
2021/04/30 13:47:24;;;;;;;1.53;0.80;;;;;;;;;;5030801;28;20182;-62
2021/04/30 13:49:52;;;;;;;0.40;0.40;;;;;;;;;;5030790;28;20185;-63
2021/04/30 13:52:20;;;;;;;0.90;0.60;;;;;;;;;;5032251;28;20861;-62
2021/04/30 13:54:46;;;;;;;10.93;1.60;;;;;;;;;;5032542;28;20183;-62
2021/04/30 13:57:13;;;;;;;0.00;0.00;;;;;;;;;;5032397;28;20651;-62
2021/04/30 13:59:41;;;;;;;1.60;0.47;;;;;;;;;;5032423;28;20211;-62
2021/04/30 14:02:08;;;;;;;0.00;0.00;;;;;;;;;;5032239;28;21047;-62
2021/04/30 14:04:35;;;;;;;0.40;0.10;;;;;;;;;;5032947;28;20181;-62
2021/04/30 14:07:01;;;;;;;0.00;0.00;;;;;;;;;;5032005;28;20192;-62
2021/04/30 14:09:28;;;;;;;0.27;0.27;;;;;;;;;;5027307;28;20496;-62
2021/04/30 14:11:55;;;;;;;0.00;0.00;;;;;;;;;;5019321;28;20194;-62
2021/04/30 14:14:21;;;;;;;1.77;1.20;;;;;;;;;;5017107;28;20188;-61
2021/04/30 14:16:48;;;;;;;0.00;0.00;;;;;;;;;;5018111;28;20563;-62
2021/04/30 14:19:15;;;;;;;0.77;0.77;;;;;;;;;;5019633;28;20205;-62
2021/04/30 14:21:42;;;;;;;0.83;0.83;;;;;;;;;;5018764;28;20305;-62
2021/04/30 14:24:12;;;;;;;0.20;0.20;;;;;;;;;;5019061;28;20195;-62
2021/04/30 14:26:40;;;;;;;0.10;0.10;;;;;;;;;;5017797;28;20197;-62
2021/04/30 14:29:07;;;;;;;0.00;0.00;;;;;;;;;;5019074;28;20223;-62
2021/04/30 14:31:34;;;;;;;0.37;0.37;;;;;;;;;;5019292;28;20723;-62
2021/04/30 14:34:01;;;;;;;0.30;0.30;;;;;;;;;;5018544;28;20193;-62
2021/04/30 14:36:28;;;;;;;0.27;0.13;;;;;;;;;;5017366;28;21078;-62
2021/04/30 14:38:55;;;;;;;0.03;0.03;;;;;;;;;;5016342;28;20206;-61
2021/04/30 14:41:22;;;;;;;0.00;0.00;;;;;;;;;;5016633;28;20289;-63
2021/04/30 14:43:48;;;;;;;3.50;0.93;;;;;;;;;;5017359;28;20197;-62
2021/04/30 14:46:15;;;;;;;1.07;1.07;;;;;;;;;;5015008;28;20414;-62
2021/04/30 14:48:41;;;;;;;0.03;0.03;;;;;;;;;;5017078;28;20245;-62
2021/04/30 14:51:08;;;;;;;8.03;1.60;;;;;;;;;;5017049;28;20640;-62
2021/04/30 14:53:34;;;;;;;1.17;0.30;;;;;;;;;;5017443;28;20250;-62
2021/04/30 14:56:01;;;;;;;1.40;1.30;;;;;;;;;;5016365;28;20282;-62
2021/04/30 14:58:28;;;;;;;0.50;0.50;;;;;;;;;;5015731;28;20339;-63
2021/04/30 15:00:54;;;;;;;0.10;0.10;;;;;;;;;;5015703;28;20815;-62
2021/04/30 15:03:20;;;;;;;0.27;0.10;;;;;;;;;;5016664;28;20649;-62
2021/04/30 15:05:51;;;;;;;0.83;0.77;;;;;;;;;;5014106;28;20274;-63
2021/04/30 15:08:21;;;;;;;0.27;0.27;;;;;;;;;;5016256;28;20305;-62
2021/04/30 15:10:52;;;;;;;0.00;0.00;;;;;;;;;;5012402;28;20318;-61
2021/04/30 15:13:19;;;;;;;0.50;0.33;;;;;;;;;;5017384;28;20708;-63
2021/04/30 15:15:46;;;;;;;0.00;0.00;;;;;;;;;;5017804;28;20279;-61
2021/04/30 15:18:12;;;;;;;2.00;0.50;;;;;;;;;;5014092;28;20204;-61
2021/04/30 15:20:39;;;;;;;0.00;0.00;;;;;;;;;;5013725;28;20180;-61
2021/04/30 15:23:05;;;;;;;0.00;0.00;;;;;;;;;;5016535;28;20199;-61
2021/04/30 15:25:32;;;;;;;3.30;0.50;;;;;;;;;;5017094;28;20255;-61
2021/04/30 15:27:59;;;;;;;0.77;0.63;;;;;;;;;;5013715;28;20195;-61
2021/04/30 15:30:26;;;;;;;1.87;0.30;;;;;;;;;;5016851;28;20188;-60
2021/04/30 15:32:53;;;;;;;0.73;0.73;;;;;;;;;;5016502;28;20609;-61
2021/04/30 15:35:19;;;;;;;4.33;0.10;;;;;;;;;;5016284;28;20533;-60
2021/04/30 15:37:46;;;;;;;2.87;0.10;;;;;;;;;;5014369;28;20200;-60
2021/04/30 15:40:15;;;;;;;1.80;0.90;;;;;;;;;;5017189;28;20182;-60
2021/04/30 15:42:42;;;;;;;2.37;1.57;;;;;;;;;;5016550;28;20219;-60
2021/04/30 15:45:09;;;;;;;11.90;6.60;;;;;;;;;;5017629;28;20173;-61
2021/04/30 15:47:36;;;;;;;4.53;3.23;;;;;;;;;;5017223;28;20554;-61
2021/04/30 15:50:04;;;;;;;0.97;0.53;;;;;;;;;;5017792;28;20668;-61
2021/04/30 15:52:30;;;;;;;1.40;0.93;;;;;;;;;;5017040;28;20302;-60
2021/04/30 15:54:57;;;;;;;5.30;3.10;;;;;;;;;;5017196;28;20672;-60
2021/04/30 15:57:24;;;;;;;4.10;1.47;;;;;;;;;;5017330;28;20184;-61
2021/04/30 15:59:51;;;;;;;0.37;0.37;;;;;;;;;;5014367;28;20184;-61
2021/04/30 16:02:17;;;;;;;4.37;3.57;;;;;;;;;;5017573;28;20733;-61
2021/04/30 16:04:44;;;;;;;0.33;0.30;;;;;;;;;;5017123;28;20177;-61
2021/04/30 16:07:10;;;;;;;1.80;0.70;;;;;;;;;;5011838;28;20193;-60
2021/04/30 16:09:37;;;;;;;0.00;0.00;;;;;;;;;;5016124;28;20242;-61
2021/04/30 16:12:05;;;;;;;0.30;0.17;;;;;;;;;;5018571;28;20216;-61
2021/04/30 16:14:32;;;;;;;1.37;0.40;;;;;;;;;;5018768;28;20173;-62
2021/04/30 16:16:59;;;;;;;2.20;0.90;;;;;;;;;;5013936;28;20205;-61
2021/04/30 16:19:25;;;;;;;0.00;0.00;;;;;;;;;;5015746;28;20202;-61
2021/04/30 16:21:52;;;;;;;0.50;0.50;;;;;;;;;;5015691;28;20182;-61
2021/04/30 16:24:19;;;;;;;0.00;0.00;;;;;;;;;;5014428;28;20187;-60
2021/04/30 16:26:45;;;;;;;0.50;0.30;;;;;;;;;;5015877;28;20204;-60
2021/04/30 16:29:12;;;;;;;0.17;0.17;;;;;;;;;;5015539;28;20182;-60
2021/04/30 16:31:39;;;;;;;0.00;0.00;;;;;;;;;;5014856;28;20925;-60
2021/04/30 16:34:05;;;;;;;0.73;0.67;;;;;;;;;;5016756;28;20186;-60
2021/04/30 16:36:32;;;;;;;4.17;1.53;;;;;;;;;;5016793;28;20221;-61
2021/04/30 16:38:59;;;;;;;3.00;0.73;;;;;;;;;;5016564;28;20310;-61
2021/04/30 16:41:29;;;;;;;0.70;0.23;;;;;;;;;;5017006;28;20540;-60
2021/04/30 16:43:55;;;;;;;1.07;0.27;;;;;;;;;;5015627;28;20592;-60
2021/04/30 16:46:22;;;;;;;0.00;0.00;;;;;;;;;;5014303;28;20183;-61
2021/04/30 16:48:51;;;;;;;0.13;0.13;;;;;;;;;;5014175;28;20213;-61
2021/04/30 16:51:26;;;;;;;0.30;0.30;;;;;;;;;;5014787;28;20192;-60
2021/04/30 16:53:53;;;;;;;3.07;0.67;;;;;;;;;;5012381;28;20186;-60
2021/04/30 16:56:19;;;;;;;0.90;0.60;;;;;;;;;;5015082;28;20184;-60
2021/04/30 16:58:46;;;;;;;0.00;0.00;;;;;;;;;;5015223;28;20230;-61
2021/04/30 17:01:13;;;;;;;0.00;0.00;;;;;;;;;;5015373;28;20212;-61
2021/04/30 17:03:39;;;;;;;0.63;0.63;;;;;;;;;;5013849;28;20274;-61
2021/04/30 17:06:06;;;;;;;1.30;0.73;;;;;;;;;;5015932;28;20180;-61
2021/04/30 17:08:32;;;;;;;0.20;0.20;;;;;;;;;;5015578;28;20279;-61
2021/04/30 17:10:59;;;;;;;0.57;0.20;;;;;;;;;;5015085;28;20177;-61
2021/04/30 17:13:27;;;;;;;4.27;1.10;;;;;;;;;;5015720;28;20192;-61
2021/04/30 17:15:54;;;;;;;1.70;1.13;;;;;;;;;;5015991;28;20275;-60
2021/04/30 17:18:21;;;;;;;2.53;1.30;;;;;;;;;;5015424;28;20215;-61
2021/04/30 17:20:48;;;;;;;0.97;0.20;;;;;;;;;;5015621;28;20784;-61
2021/04/30 17:23:15;;;;;;;0.13;0.13;;;;;;;;;;5020840;28;20222;-61
2021/04/30 17:25:41;;;;;;;0.83;0.30;;;;;;;;;;5015480;28;20234;-60
2021/04/30 17:28:08;;;;;;;0.23;0.23;;;;;;;;;;5014842;28;20693;-60
2021/04/30 17:30:34;;;;;;;2.67;0.97;;;;;;;;;;5015421;28;20181;-61
2021/04/30 17:33:01;;;;;;;0.30;0.23;;;;;;;;;;5015100;28;20661;-61
2021/04/30 17:35:27;;;;;;;0.67;0.33;;;;;;;;;;5014304;28;20176;-61
2021/04/30 17:37:54;;;;;;;0.00;0.00;;;;;;;;;;5015756;28;20242;-60
2021/04/30 17:40:21;;;;;;;0.10;0.10;;;;;;;;;;5015478;28;20571;-60
2021/04/30 17:42:47;;;;;;;0.00;0.00;;;;;;;;;;5014510;28;20172;-60
2021/04/30 17:45:15;;;;;;;2.20;1.07;;;;;;;;;;5015052;28;20187;-61
2021/04/30 17:47:41;;;;;;;1.90;0.77;;;;;;;;;;5017937;28;20191;-61
2021/04/30 17:50:09;;;;;;;0.40;0.40;;;;;;;;;;5017001;28;20192;-62
2021/04/30 17:52:36;;;;;;;0.30;0.30;;;;;;;;;;5017957;28;20223;-61
2021/04/30 17:55:04;;;;;;;0.10;0.00;;;;;;;;;;5017658;28;20187;-61
2021/04/30 17:57:31;;;;;;;0.40;0.30;;;;;;;;;;5016451;28;20705;-61
2021/04/30 17:59:58;;;;;;;0.77;0.63;;;;;;;;;;5018210;28;20203;-60
2021/04/30 18:02:25;;;;;;;0.33;0.20;;;;;;;;;;5018315;28;20717;-60
2021/04/30 18:04:52;;;;;;;1.13;1.13;;;;;;;;;;5018738;28;20181;-60
2021/04/30 18:07:20;;;;;;;0.57;0.50;;;;;;;;;;5017185;28;20297;-60
2021/04/30 18:09:46;;;;;;;0.43;0.40;;;;;;;;;;5017724;28;20239;-60
2021/04/30 18:12:12;;;;;;;0.60;0.53;;;;;;;;;;5015655;28;20476;-61
2021/04/30 18:14:39;;;;;;;0.63;0.63;;;;;;;;;;5018002;28;20192;-60
2021/04/30 18:17:07;;;;;;;0.10;0.10;;;;;;;;;;5018773;28;20538;-60
2021/04/30 18:19:35;;;;;;;0.00;0.00;;;;;;;;;;5019047;28;21056;-61
2021/04/30 18:22:04;;;;;;;0.40;0.40;;;;;;;;;;5022609;28;20275;-60
2021/04/30 18:24:31;;;;;;;0.10;0.10;;;;;;;;;;5017335;28;20290;-61
2021/04/30 18:26:59;;;;;;;5.87;0.40;;;;;;;;;;5018747;28;20311;-61
2021/04/30 18:29:25;;;;;;;0.83;0.07;;;;;;;;;;5018825;28;20203;-61
2021/04/30 18:31:52;;;;;;;0.00;0.00;;;;;;;;;;5017638;28;20192;-61
2021/04/30 18:34:19;;;;;;;0.93;0.73;;;;;;;;;;5018591;28;20188;-61
2021/04/30 18:36:46;;;;;;;6.40;0.30;;;;;;;;;;5018752;28;20192;-60
2021/04/30 18:39:13;;;;;;;0.73;0.47;;;;;;;;;;5018857;28;20207;-61
2021/04/30 18:41:44;;;;;;;0.20;0.20;;;;;;;;;;5018888;28;20552;-61
2021/04/30 18:44:12;;;;;;;1.50;0.43;;;;;;;;;;5018401;28;20263;-61
2021/04/30 18:46:39;;;;;;;4.97;2.60;;;;;;;;;;5018898;28;20253;-61
2021/04/30 18:49:06;;;;;;;0.13;0.00;;;;;;;;;;5018407;28;20211;-61
2021/04/30 18:51:33;;;;;;;0.00;0.00;;;;;;;;;;5018463;28;20238;-61
2021/04/30 18:53:59;;;;;;;0.00;0.00;;;;;;;;;;5017955;28;20185;-61
2021/04/30 18:56:26;;;;;;;1.30;0.40;;;;;;;;;;5017997;28;20280;-60
2021/04/30 18:58:52;;;;;;;3.50;0.63;;;;;;;;;;5017898;28;20327;-61
2021/04/30 19:01:19;;;;;;;0.07;0.07;;;;;;;;;;5017404;28;20187;-61
2021/04/30 19:03:45;;;;;;;0.00;0.00;;;;;;;;;;5017912;28;20271;-61
2021/04/30 19:06:12;;;;;;;2.30;0.17;;;;;;;;;;5020290;28;20193;-64
2021/04/30 19:08:38;;;;;;;0.43;0.43;;;;;;;;;;5019011;28;20288;-63
2021/04/30 19:11:05;;;;;;;1.07;0.83;;;;;;;;;;5018308;28;20183;-62
2021/04/30 19:13:32;;;;;;;0.23;0.20;;;;;;;;;;5016661;28;20199;-65
2021/04/30 19:15:58;;;;;;;0.20;0.10;;;;;;;;;;5017515;28;20644;-64